Webcam Richtung Westen

Webcam27

Webcam Richtung Norden

Webcam36

Webcam Richtung Osten

Webcam09

Wetter(Würzburg):
112100Z AUTO 16003G04KT 21KM BKN140 OVC180 OVC240 20/17 Q1018
		
Tue 11.08.2020, 21:00 UTC

Sichtweite bis zu 21 km
Wind aus 160° mit 03kt, in Böen bis zu 04kt
unterbrochene Wolkendecke (5-7 Achtel) bei 14000 Fuß
bedeckter Himmel (8 Achtel) bei 18000 Fuß
bedeckter Himmel (8 Achtel) bei 24000 Fuß
Temperatur: 20 °C
Taupunkt: 17 °C
QNH: 1018 hPa
                         Heute        Morgen
                         11.08        12.08
--------------------------------------------
Beginn der Dämmerung     03:28        03:30
Sonnenaufgang            04:05        04:06
Sonnenuntergang          18:46        18:44
Ende der Dämmerung       19:23        19:21

Alle Zeiten in UTC